Sakhryba — UEKI — position and weather

sailwx.info

Track history (hours):
 
Tides and Currents Weather Stations Pressure Air Temp Water Temp Dewpoint Dewpoint Depression Visibility Wind Speed Wind Dir Waves Ship Positions

Sakhryba

Last reported at 2018-Jun-02 13:39 UTC. Time now 2018-Jun-25 19:27 UTC.
Position N 01°21' E 104°25'.
Warning: this ship's position is 23 days out of date.

Length 55 m; draft 4.6 m.

Type: Cargo ship. MMSI: 273829410.

Date/timePositionNaut miles runAvg speedWind from/ knotsBaromVisibWave heightAir tempDewpointWater temp
2018-Jun-02 13:39N 01°21' E 104°25'3 8.5
2018-Jun-02 13:21N 01°20' E 104°23'4 8.4
2018-Jun-02 12:53N 01°17' E 104°20'3 8.0
2018-Jun-02 12:30N 01°16' E 104°17'4 8.1
2018-Jun-02 12:00N 01°15' E 104°13'4 8.3
2018-Jun-02 11:29N 01°15' E 104°09'4 7.8
2018-Jun-02 10:59N 01°14' E 104°05'4 7.6
2018-Jun-02 10:29N 01°14' E 104°02'4 8.0
2018-Jun-02 10:00N 01°14' E 103°58'4 7.9
2018-Jun-02 09:30N 01°14' E 103°54'3 5.2
2018-Jun-02 09:00N 01°16' E 103°53'1 1.5
2018-Jun-02 08:29N 01°17' E 103°52'0 0.0
2018-Jun-02 07:59N 01°17' E 103°52'0 0.0
2018-Jun-02 07:23N 01°17' E 103°52'0 0.1
2018-Jun-02 06:57N 01°17' E 103°52'0 0.0
2018-Jun-02 06:26N 01°17' E 103°52'0 0.0
2018-Jun-02 05:58N 01°17' E 103°52'0 0.0
2018-Jun-02 05:24N 01°17' E 103°52'0 0.0
2018-Jun-02 04:58N 01°17' E 103°52'0 0.0
2018-Jun-02 04:26N 01°17' E 103°52'0 0.0
2018-Jun-02 03:58N 01°17' E 103°52'0 0.0
2018-Jun-02 03:29N 01°17' E 103°52'0 0.0
2018-Jun-02 02:48N 01°17' E 103°52'0 0.0
2018-Jun-02 02:27N 01°17' E 103°52'0 0.0
2018-Jun-02 02:00N 01°17' E 103°52'1 2.5
2018-Jun-02 01:30N 01°16' E 103°53'2 3.9
2018-Jun-02 01:00N 01°14' E 103°54'1 3.0
2018-Jun-02 00:30N 01°12' E 103°54'3 5.8
2018-Jun-02 00:00N 01°11' E 103°51'3 5.9
2018-Jun-01 23:30N 01°10' E 103°48'3 5.4
2018-Jun-01 23:00N 01°09' E 103°46'3 5.9
2018-Jun-01 22:29N 01°06' E 103°44'3 7.0
2018-Jun-01 22:00N 01°04' E 103°41'3 6.7
2018-Jun-01 21:30N 01°04' E 103°38'4 7.6
2018-Jun-01 21:00N 01°06' E 103°35'4 7.3
2018-Jun-01 20:30N 01°08' E 103°31'4 7.9
2018-Jun-01 20:00N 01°09' E 103°28'4 8.1
2018-Jun-01 19:30N 01°11' E 103°24'4 8.1
2018-Jun-01 18:58N 01°14' E 103°21'4 8.3
2018-Jun-01 18:30N 01°16' E 103°18'4 7.8
2018-Jun-01 17:59N 01°19' E 103°15'  
Track history (hours):
 
Tides and Currents Weather Stations Pressure Air Temp Water Temp Dewpoint Dewpoint Depression Visibility Wind Speed Wind Dir Waves Ship Positions

Sakhryba

Last reported at 2018-Jun-02 13:39 UTC. Time now 2018-Jun-25 19:27 UTC.
Position N 01°21' E 104°25'.
Warning: this ship's position is 23 days out of date.

Length 55 m; draft 4.6 m.

Type: Cargo ship. MMSI: 273829410.

Date/timePositionNaut miles runAvg speedWind from/ knotsBaromVisibWave heightAir tempDewpointWater temp
2018-Jun-02 13:39N 01°21' E 104°25'3 8.5
2018-Jun-02 13:21N 01°20' E 104°23'4 8.4
2018-Jun-02 12:53N 01°17' E 104°20'3 8.0
2018-Jun-02 12:30N 01°16' E 104°17'4 8.1
2018-Jun-02 12:00N 01°15' E 104°13'4 8.3
2018-Jun-02 11:29N 01°15' E 104°09'4 7.8
2018-Jun-02 10:59N 01°14' E 104°05'4 7.6
2018-Jun-02 10:29N 01°14' E 104°02'4 8.0
2018-Jun-02 10:00N 01°14' E 103°58'4 7.9
2018-Jun-02 09:30N 01°14' E 103°54'3 5.2
2018-Jun-02 09:00N 01°16' E 103°53'1 1.5
2018-Jun-02 08:29N 01°17' E 103°52'0 0.0
2018-Jun-02 07:59N 01°17' E 103°52'0 0.0
2018-Jun-02 07:23N 01°17' E 103°52'0 0.1
2018-Jun-02 06:57N 01°17' E 103°52'0 0.0
2018-Jun-02 06:26N 01°17' E 103°52'0 0.0
2018-Jun-02 05:58N 01°17' E 103°52'0 0.0
2018-Jun-02 05:24N 01°17' E 103°52'0 0.0
2018-Jun-02 04:58N 01°17' E 103°52'0 0.0
2018-Jun-02 04:26N 01°17' E 103°52'0 0.0
2018-Jun-02 03:58N 01°17' E 103°52'0 0.0
2018-Jun-02 03:29N 01°17' E 103°52'0 0.0
2018-Jun-02 02:48N 01°17' E 103°52'0 0.0
2018-Jun-02 02:27N 01°17' E 103°52'0 0.0
2018-Jun-02 02:00N 01°17' E 103°52'1 2.5
2018-Jun-02 01:30N 01°16' E 103°53'2 3.9
2018-Jun-02 01:00N 01°14' E 103°54'1 3.0
2018-Jun-02 00:30N 01°12' E 103°54'3 5.8
2018-Jun-02 00:00N 01°11' E 103°51'3 5.9
2018-Jun-01 23:30N 01°10' E 103°48'3 5.4
2018-Jun-01 23:00N 01°09' E 103°46'3 5.9
2018-Jun-01 22:29N 01°06' E 103°44'3 7.0
2018-Jun-01 22:00N 01°04' E 103°41'3 6.7
2018-Jun-01 21:30N 01°04' E 103°38'4 7.6
2018-Jun-01 21:00N 01°06' E 103°35'4 7.3
2018-Jun-01 20:30N 01°08' E 103°31'4 7.9
2018-Jun-01 20:00N 01°09' E 103°28'4 8.1
2018-Jun-01 19:30N 01°11' E 103°24'4 8.1
2018-Jun-01 18:58N 01°14' E 103°21'4 8.3
2018-Jun-01 18:30N 01°16' E 103°18'4 7.8
2018-Jun-01 17:59N 01°19' E 103°15'  

Dump ship's entire track history